sensor_id;sensor_type;location;lat;lon;timestamp;pressure;altitude;pressure_sealevel;temperature;humidity
929;BME280;451;47.988;7.842;2022-07-18T00:00:36;99088.44;;;20.64;66.45
929;BME280;451;47.988;7.842;2022-07-18T00:09:39;99102.59;;;20.65;65.08
929;BME280;451;47.988;7.842;2022-07-18T00:18:41;99080.78;;;20.43;65.38
929;BME280;451;47.988;7.842;2022-07-18T00:27:43;99106.56;;;20.56;64.52
929;BME280;451;47.988;7.842;2022-07-18T00:36:45;99118.03;;;20.31;65.14
929;BME280;451;47.988;7.842;2022-07-18T00:45:48;99118.34;;;19.85;65.81
929;BME280;451;47.988;7.842;2022-07-18T00:54:50;99124.69;;;20.22;63.92
929;BME280;451;47.988;7.842;2022-07-18T01:03:51;99127.72;;;20.32;62.00
929;BME280;451;47.988;7.842;2022-07-18T01:12:53;99110.91;;;19.94;63.09
929;BME280;451;47.988;7.842;2022-07-18T01:21:55;99111.75;;;19.88;64.39
929;BME280;451;47.988;7.842;2022-07-18T01:30:56;99116.28;;;19.36;71.61
929;BME280;451;47.988;7.842;2022-07-18T01:39:58;99122.78;;;19.60;71.04
929;BME280;451;47.988;7.842;2022-07-18T01:48:59;99115.84;;;19.39;71.31
929;BME280;451;47.988;7.842;2022-07-18T01:58:01;99118.97;;;19.36;71.14
929;BME280;451;47.988;7.842;2022-07-18T02:07:04;99127.19;;;19.21;71.79
929;BME280;451;47.988;7.842;2022-07-18T02:16:06;99116.81;;;18.54;74.60
929;BME280;451;47.988;7.842;2022-07-18T02:25:09;99118.25;;;18.83;74.86
929;BME280;451;47.988;7.842;2022-07-18T02:34:12;99130.13;;;18.80;74.77
929;BME280;451;47.988;7.842;2022-07-18T02:43:14;99123.56;;;19.03;73.76
929;BME280;451;47.988;7.842;2022-07-18T02:52:15;99113.91;;;19.08;72.49
929;BME280;451;47.988;7.842;2022-07-18T03:01:17;99109.22;;;18.84;72.98
929;BME280;451;47.988;7.842;2022-07-18T03:10:19;99126.44;;;18.81;73.12
929;BME280;451;47.988;7.842;2022-07-18T03:19:22;99110.44;;;18.88;71.16
929;BME280;451;47.988;7.842;2022-07-18T03:28:24;99118.25;;;18.89;71.97
929;BME280;451;47.988;7.842;2022-07-18T03:37:27;99133.41;;;18.69;73.12
929;BME280;451;47.988;7.842;2022-07-18T03:46:30;99126.06;;;18.58;73.81
929;BME280;451;47.988;7.842;2022-07-18T03:55:32;99130.94;;;18.48;75.97
929;BME280;451;47.988;7.842;2022-07-18T04:04:35;99136.84;;;18.43;76.32
929;BME280;451;47.988;7.842;2022-07-18T04:13:37;99139.38;;;18.71;75.35
929;BME280;451;47.988;7.842;2022-07-18T04:22:56;99131.94;;;18.93;73.24
929;BME280;451;47.988;7.842;2022-07-18T04:31:58;99127.88;;;18.84;72.78
929;BME280;451;47.988;7.842;2022-07-18T04:41:00;99135.69;;;18.59;72.90
929;BME280;451;47.988;7.842;2022-07-18T04:50:04;99133.00;;;18.99;71.94
929;BME280;451;47.988;7.842;2022-07-18T04:59:06;99123.06;;;19.32;70.69
929;BME280;451;47.988;7.842;2022-07-18T05:08:09;99132.03;;;19.57;69.36
929;BME280;451;47.988;7.842;2022-07-18T05:17:14;99133.97;;;19.82;68.48
929;BME280;451;47.988;7.842;2022-07-18T05:26:16;99128.97;;;20.30;68.26
929;BME280;451;47.988;7.842;2022-07-18T05:35:19;99124.34;;;20.68;66.69
929;BME280;451;47.988;7.842;2022-07-18T05:44:21;99116.31;;;20.93;63.35
929;BME280;451;47.988;7.842;2022-07-18T05:53:23;99135.38;;;21.58;60.81
929;BME280;451;47.988;7.842;2022-07-18T06:02:26;99134.06;;;21.67;60.54
929;BME280;451;47.988;7.842;2022-07-18T06:11:29;99126.47;;;21.94;60.11
929;BME280;451;47.988;7.842;2022-07-18T06:20:31;99118.69;;;21.92;56.67
929;BME280;451;47.988;7.842;2022-07-18T06:29:33;99110.47;;;22.59;56.48
929;BME280;451;47.988;7.842;2022-07-18T06:38:35;99117.81;;;22.63;55.27
929;BME280;451;47.988;7.842;2022-07-18T06:47:38;99059.06;;;22.50;54.59
929;BME280;451;47.988;7.842;2022-07-18T06:56:42;99115.19;;;22.98;55.42
929;BME280;451;47.988;7.842;2022-07-18T07:05:44;99094.06;;;23.65;52.37
929;BME280;451;47.988;7.842;2022-07-18T07:14:47;99114.72;;;23.64;53.74
929;BME280;451;47.988;7.842;2022-07-18T07:23:49;99111.28;;;24.09;52.55
929;BME280;451;47.988;7.842;2022-07-18T07:32:51;99102.59;;;24.19;51.69
929;BME280;451;47.988;7.842;2022-07-18T07:41:53;99110.59;;;24.30;52.14
929;BME280;451;47.988;7.842;2022-07-18T07:50:55;99085.81;;;24.78;49.77
929;BME280;451;47.988;7.842;2022-07-18T07:59:56;99095.03;;;25.43;48.45
929;BME280;451;47.988;7.842;2022-07-18T08:09:13;99071.81;;;25.15;47.24
929;BME280;451;47.988;7.842;2022-07-18T08:18:14;99070.44;;;25.78;46.42
929;BME280;451;47.988;7.842;2022-07-18T08:27:16;99060.06;;;25.91;45.25
929;BME280;451;47.988;7.842;2022-07-18T08:36:18;99061.59;;;26.41;44.40
929;BME280;451;47.988;7.842;2022-07-18T08:45:23;99071.53;;;26.72;44.34
929;BME280;451;47.988;7.842;2022-07-18T08:54:25;99059.66;;;27.10;42.99
929;BME280;451;47.988;7.842;2022-07-18T09:03:27;99058.19;;;27.55;42.35
929;BME280;451;47.988;7.842;2022-07-18T09:12:29;99059.16;;;28.46;40.87
929;BME280;451;47.988;7.842;2022-07-18T09:21:35;99041.56;;;28.59;41.31
929;BME280;451;47.988;7.842;2022-07-18T09:30:37;99038.00;;;32.17;36.01
929;BME280;451;47.988;7.842;2022-07-18T09:39:39;98997.16;;;30.99;35.38
929;BME280;451;47.988;7.842;2022-07-18T09:48:41;99047.19;;;31.64;34.08
929;BME280;451;47.988;7.842;2022-07-18T09:57:43;99037.63;;;31.24;34.12
929;BME280;451;47.988;7.842;2022-07-18T10:06:45;99035.66;;;32.24;33.24
929;BME280;451;47.988;7.842;2022-07-18T10:15:48;99035.22;;;32.35;33.32
929;BME280;451;47.988;7.842;2022-07-18T10:24:51;99024.00;;;32.69;31.47
929;BME280;451;47.988;7.842;2022-07-18T10:34:08;99017.06;;;32.91;31.58
929;BME280;451;47.988;7.842;2022-07-18T11:01:48;98997.97;;;32.77;30.96
929;BME280;451;47.988;7.842;2022-07-18T11:20:44;98994.84;;;33.25;31.05
929;BME280;451;47.988;7.842;2022-07-18T11:29:40;98981.00;;;33.07;30.75
929;BME280;451;47.988;7.842;2022-07-18T11:38:53;98965.28;;;32.91;31.07
929;BME280;451;47.988;7.842;2022-07-18T11:47:55;98956.97;;;33.09;31.58
929;BME280;451;47.988;7.842;2022-07-18T11:56:56;98960.41;;;32.60;31.74
929;BME280;451;47.988;7.842;2022-07-18T12:06:11;98928.50;;;33.15;31.01
929;BME280;451;47.988;7.842;2022-07-18T12:15:13;98943.69;;;33.44;31.04
929;BME280;451;47.988;7.842;2022-07-18T12:33:31;98908.19;;;33.57;30.43
929;BME280;451;47.988;7.842;2022-07-18T12:42:35;98914.34;;;33.85;30.27
929;BME280;451;47.988;7.842;2022-07-18T12:51:37;98908.91;;;34.56;29.53
929;BME280;451;47.988;7.842;2022-07-18T13:00:39;98896.50;;;34.98;28.26
929;BME280;451;47.988;7.842;2022-07-18T13:09:41;98877.28;;;34.24;28.84
929;BME280;451;47.988;7.842;2022-07-18T13:18:43;98893.72;;;34.72;28.91
929;BME280;451;47.988;7.842;2022-07-18T13:27:45;98880.25;;;35.01;28.13
929;BME280;451;47.988;7.842;2022-07-18T13:36:49;98865.78;;;35.09;28.02
929;BME280;451;47.988;7.842;2022-07-18T13:45:51;98859.38;;;35.40;28.20
929;BME280;451;47.988;7.842;2022-07-18T13:54:52;98851.03;;;35.28;28.12
929;BME280;451;47.988;7.842;2022-07-18T14:03:57;98833.91;;;34.70;28.56
929;BME280;451;47.988;7.842;2022-07-18T14:12:59;98831.16;;;35.56;29.42
929;BME280;451;47.988;7.842;2022-07-18T14:22:01;98833.31;;;35.25;28.76
929;BME280;451;47.988;7.842;2022-07-18T14:31:03;98810.63;;;35.33;28.83
929;BME280;451;47.988;7.842;2022-07-18T14:40:05;98828.16;;;35.24;29.63
929;BME280;451;47.988;7.842;2022-07-18T14:49:07;98800.38;;;35.68;30.16
929;BME280;451;47.988;7.842;2022-07-18T14:58:09;98792.88;;;35.56;29.59
929;BME280;451;47.988;7.842;2022-07-18T15:07:11;98796.44;;;36.04;28.89
929;BME280;451;47.988;7.842;2022-07-18T15:16:13;98793.09;;;35.26;29.83
929;BME280;451;47.988;7.842;2022-07-18T15:25:15;98768.47;;;35.00;29.52
929;BME280;451;47.988;7.842;2022-07-18T15:34:16;98776.97;;;35.41;29.71
929;BME280;451;47.988;7.842;2022-07-18T15:43:18;98759.00;;;35.23;30.23
929;BME280;451;47.988;7.842;2022-07-18T15:52:20;98731.59;;;35.40;30.04
929;BME280;451;47.988;7.842;2022-07-18T16:01:21;98736.81;;;34.82;31.06
929;BME280;451;47.988;7.842;2022-07-18T16:10:23;98734.25;;;34.76;30.41
929;BME280;451;47.988;7.842;2022-07-18T16:19:25;98735.81;;;34.69;30.50
929;BME280;451;47.988;7.842;2022-07-18T16:28:27;98716.91;;;34.72;30.64
929;BME280;451;47.988;7.842;2022-07-18T16:37:32;98705.28;;;34.32;30.09
929;BME280;451;47.988;7.842;2022-07-18T16:46:33;98695.50;;;34.57;29.61
929;BME280;451;47.988;7.842;2022-07-18T16:55:39;98704.00;;;34.21;29.85
929;BME280;451;47.988;7.842;2022-07-18T17:04:41;98691.16;;;34.48;29.54
929;BME280;451;47.988;7.842;2022-07-18T17:13:44;98678.91;;;34.19;30.08
929;BME280;451;47.988;7.842;2022-07-18T17:22:47;98648.22;;;33.96;30.37
929;BME280;451;47.988;7.842;2022-07-18T17:31:49;98671.28;;;33.73;30.35
929;BME280;451;47.988;7.842;2022-07-18T17:40:51;98689.09;;;33.40;30.82
929;BME280;451;47.988;7.842;2022-07-18T17:49:53;98677.06;;;32.88;32.19
929;BME280;451;47.988;7.842;2022-07-18T17:58:54;98684.28;;;32.92;32.92
929;BME280;451;47.988;7.842;2022-07-18T18:07:56;98682.56;;;32.74;32.70
929;BME280;451;47.988;7.842;2022-07-18T18:16:58;98673.72;;;32.68;33.22
929;BME280;451;47.988;7.842;2022-07-18T18:26:02;98682.63;;;32.60;33.42
929;BME280;451;47.988;7.842;2022-07-18T18:35:07;98689.47;;;32.58;33.92
929;BME280;451;47.988;7.842;2022-07-18T18:44:09;98677.81;;;32.43;34.55
929;BME280;451;47.988;7.842;2022-07-18T18:53:11;98667.84;;;32.03;35.92
929;BME280;451;47.988;7.842;2022-07-18T19:02:13;98693.28;;;31.25;38.45
929;BME280;451;47.988;7.842;2022-07-18T19:11:16;98683.22;;;30.42;39.98
929;BME280;451;47.988;7.842;2022-07-18T19:20:17;98675.00;;;29.62;42.03
929;BME280;451;47.988;7.842;2022-07-18T19:29:19;98679.50;;;29.19;42.41
929;BME280;451;47.988;7.842;2022-07-18T19:38:21;98700.75;;;28.68;45.79
929;BME280;451;47.988;7.842;2022-07-18T19:47:23;98684.03;;;28.12;46.99
929;BME280;451;47.988;7.842;2022-07-18T19:56:25;98729.53;;;27.99;48.88
929;BME280;451;47.988;7.842;2022-07-18T20:05:27;98728.28;;;27.61;50.78
929;BME280;451;47.988;7.842;2022-07-18T20:14:29;98726.69;;;27.45;51.77
929;BME280;451;47.988;7.842;2022-07-18T20:23:32;98723.47;;;27.38;52.56
929;BME280;451;47.988;7.842;2022-07-18T20:32:34;98727.25;;;27.12;52.43
929;BME280;451;47.988;7.842;2022-07-18T20:41:37;98734.28;;;27.18;52.56
929;BME280;451;47.988;7.842;2022-07-18T20:50:39;98724.59;;;26.92;53.47
929;BME280;451;47.988;7.842;2022-07-18T20:59:40;98726.69;;;26.74;53.75
929;BME280;451;47.988;7.842;2022-07-18T21:08:42;98739.09;;;26.65;53.96
929;BME280;451;47.988;7.842;2022-07-18T21:17:47;98731.16;;;26.23;55.23
929;BME280;451;47.988;7.842;2022-07-18T21:26:51;98707.81;;;25.87;57.35
929;BME280;451;47.988;7.842;2022-07-18T21:35:52;98740.47;;;25.90;57.33
929;BME280;451;47.988;7.842;2022-07-18T21:44:55;98728.06;;;25.89;56.53
929;BME280;451;47.988;7.842;2022-07-18T21:53:59;98733.88;;;25.66;58.10
929;BME280;451;47.988;7.842;2022-07-18T22:03:00;98727.53;;;25.45;59.97
929;BME280;451;47.988;7.842;2022-07-18T22:12:03;98729.22;;;25.19;60.51
929;BME280;451;47.988;7.842;2022-07-18T22:21:05;98733.25;;;25.17;60.06
929;BME280;451;47.988;7.842;2022-07-18T22:30:10;98709.50;;;24.77;61.53
929;BME280;451;47.988;7.842;2022-07-18T22:48:28;98686.28;;;24.39;61.99
929;BME280;451;47.988;7.842;2022-07-18T22:57:30;98675.94;;;24.04;63.08
929;BME280;451;47.988;7.842;2022-07-18T23:06:32;98708.38;;;24.19;63.41
929;BME280;451;47.988;7.842;2022-07-18T23:15:35;98607.47;;;23.80;61.36
929;BME280;451;47.988;7.842;2022-07-18T23:24:38;98683.19;;;24.25;60.06
929;BME280;451;47.988;7.842;2022-07-18T23:33:40;98644.78;;;24.03;59.24
929;BME280;451;47.988;7.842;2022-07-18T23:42:43;98682.00;;;24.16;58.88
929;BME280;451;47.988;7.842;2022-07-18T23:51:45;98670.56;;;24.26;58.24
